sensor_id;sensor_type;location;lat;lon;timestamp;pressure;altitude;pressure_sealevel;temperature;humidity
30614;BME280;17381;51.690;5.270;2023-02-05T00:00:11;103695.19;;;8.42;91.45
30614;BME280;17381;51.690;5.270;2023-02-05T00:02:37;103690.72;;;8.39;91.52
30614;BME280;17381;51.690;5.270;2023-02-05T00:05:06;103682.88;;;8.39;91.36
30614;BME280;17381;51.690;5.270;2023-02-05T00:07:38;103681.91;;;8.39;91.35
30614;BME280;17381;51.690;5.270;2023-02-05T00:10:05;103693.47;;;8.44;91.23
30614;BME280;17381;51.690;5.270;2023-02-05T00:12:55;103636.59;;;8.13;91.39
30614;BME280;17381;51.690;5.270;2023-02-05T00:15:27;103672.50;;;8.44;91.78
30614;BME280;17381;51.690;5.270;2023-02-05T00:17:56;103659.28;;;8.39;91.58
30614;BME280;17381;51.690;5.270;2023-02-05T00:20:31;103654.91;;;8.40;91.44
30614;BME280;17381;51.690;5.270;2023-02-05T00:22:57;103650.56;;;8.40;91.50
30614;BME280;17381;51.690;5.270;2023-02-05T00:25:34;103639.88;;;8.34;91.74
30614;BME280;17381;51.690;5.270;2023-02-05T00:28:08;103640.00;;;8.39;91.46
30614;BME280;17381;51.690;5.270;2023-02-05T00:31:11;103654.66;;;8.32;91.15
30614;BME280;17381;51.690;5.270;2023-02-05T00:33:41;103655.50;;;8.31;91.51
30614;BME280;17381;51.690;5.270;2023-02-05T00:36:09;103641.47;;;8.29;91.71
30614;BME280;17381;51.690;5.270;2023-02-05T00:38:34;103645.00;;;8.31;91.50
30614;BME280;17381;51.690;5.270;2023-02-05T00:41:09;103619.59;;;8.28;91.30
30614;BME280;17381;51.690;5.270;2023-02-05T00:43:47;103616.97;;;8.27;91.55
30614;BME280;17381;51.690;5.270;2023-02-05T00:46:21;103610.63;;;8.20;91.71
30614;BME280;17381;51.690;5.270;2023-02-05T00:48:52;103633.41;;;8.23;91.65
30614;BME280;17381;51.690;5.270;2023-02-05T00:51:20;103582.94;;;7.98;91.52
30614;BME280;17381;51.690;5.270;2023-02-05T00:53:55;103617.63;;;8.20;91.75
30614;BME280;17381;51.690;5.270;2023-02-05T00:56:20;103628.94;;;8.19;91.48
30614;BME280;17381;51.690;5.270;2023-02-05T00:58:52;103613.94;;;8.13;91.46
30614;BME280;17381;51.690;5.270;2023-02-05T01:01:18;103629.59;;;8.12;91.64
30614;BME280;17381;51.690;5.270;2023-02-05T01:03:59;103636.69;;;8.16;91.58
30614;BME280;17381;51.690;5.270;2023-02-05T01:06:28;103618.19;;;8.09;91.46
30614;BME280;17381;51.690;5.270;2023-02-05T01:08:58;103627.03;;;8.13;91.60
30614;BME280;17381;51.690;5.270;2023-02-05T01:11:26;103632.22;;;8.12;91.50
30614;BME280;17381;51.690;5.270;2023-02-05T01:13:55;103633.97;;;8.11;92.03
30614;BME280;17381;51.690;5.270;2023-02-05T01:19:11;103647.00;;;8.09;91.81
30614;BME280;17381;51.690;5.270;2023-02-05T01:21:40;103653.03;;;8.07;91.68
30614;BME280;17381;51.690;5.270;2023-02-05T01:24:17;103640.59;;;8.00;91.96
30614;BME280;17381;51.690;5.270;2023-02-05T01:26:51;103647.78;;;8.05;91.97
30614;BME280;17381;51.690;5.270;2023-02-05T01:29:28;103583.88;;;7.72;92.22
30614;BME280;17381;51.690;5.270;2023-02-05T01:32:05;103640.66;;;8.01;92.07
30614;BME280;17381;51.690;5.270;2023-02-05T01:34:41;103627.38;;;7.95;92.25
30614;BME280;17381;51.690;5.270;2023-02-05T01:37:09;103637.00;;;7.96;91.91
30614;BME280;17381;51.690;5.270;2023-02-05T01:39:40;103641.38;;;7.97;91.99
30614;BME280;17381;51.690;5.270;2023-02-05T01:42:36;103641.34;;;7.96;92.36
30614;BME280;17381;51.690;5.270;2023-02-05T01:48:03;103636.81;;;7.90;92.51
30614;BME280;17381;51.690;5.270;2023-02-05T01:50:38;103599.59;;;7.72;92.61
30614;BME280;17381;51.690;5.270;2023-02-05T01:53:15;103649.94;;;7.92;93.12
30614;BME280;17381;51.690;5.270;2023-02-05T01:55:48;103644.63;;;7.89;92.71
30614;BME280;17381;51.690;5.270;2023-02-05T01:58:25;103623.38;;;7.79;93.13
30614;BME280;17381;51.690;5.270;2023-02-05T02:00:55;103654.22;;;7.88;92.77
30614;BME280;17381;51.690;5.270;2023-02-05T02:03:22;103623.38;;;7.79;92.97
30614;BME280;17381;51.690;5.270;2023-02-05T02:05:55;103640.28;;;7.89;92.50
30614;BME280;17381;51.690;5.270;2023-02-05T02:08:21;103618.25;;;7.82;93.03
30614;BME280;17381;51.690;5.270;2023-02-05T02:10:52;103634.06;;;7.85;93.35
30614;BME280;17381;51.690;5.270;2023-02-05T02:13:21;103648.19;;;7.91;93.25
30614;BME280;17381;51.690;5.270;2023-02-05T02:15:53;103600.25;;;7.64;92.95
30614;BME280;17381;51.690;5.270;2023-02-05T02:18:28;103623.53;;;7.84;92.81
30614;BME280;17381;51.690;5.270;2023-02-05T02:30:22;103612.09;;;7.82;92.86
30614;BME280;17381;51.690;5.270;2023-02-05T02:33:05;103613.81;;;7.80;93.48
30614;BME280;17381;51.690;5.270;2023-02-05T02:35:47;103594.31;;;7.70;93.27
30614;BME280;17381;51.690;5.270;2023-02-05T02:38:43;103609.47;;;7.80;93.54
30614;BME280;17381;51.690;5.270;2023-02-05T02:41:26;103616.38;;;7.78;93.72
30614;BME280;17381;51.690;5.270;2023-02-05T02:43:56;103565.84;;;7.52;92.84
30614;BME280;17381;51.690;5.270;2023-02-05T02:46:39;103595.34;;;7.75;92.97
30614;BME280;17381;51.690;5.270;2023-02-05T02:49:46;103591.00;;;7.76;92.77
30614;BME280;17381;51.690;5.270;2023-02-05T02:52:18;103580.13;;;7.63;93.18
30614;BME280;17381;51.690;5.270;2023-02-05T02:54:52;103603.19;;;7.75;92.71
30614;BME280;17381;51.690;5.270;2023-02-05T02:57:36;103549.84;;;7.43;92.70
30614;BME280;17381;51.690;5.270;2023-02-05T03:00:11;103570.44;;;7.59;92.57
30614;BME280;17381;51.690;5.270;2023-02-05T03:02:39;103570.47;;;7.61;92.33
30614;BME280;17381;51.690;5.270;2023-02-05T03:05:14;103561.09;;;7.69;92.43
30614;BME280;17381;51.690;5.270;2023-02-05T03:07:46;103557.53;;;7.65;92.44
30614;BME280;17381;51.690;5.270;2023-02-05T03:10:43;103564.34;;;7.60;92.49
30614;BME280;17381;51.690;5.270;2023-02-05T03:13:13;103560.66;;;7.54;92.64
30614;BME280;17381;51.690;5.270;2023-02-05T03:15:45;103542.66;;;7.36;92.44
30614;BME280;17381;51.690;5.270;2023-02-05T03:18:15;103483.31;;;7.06;92.46
30614;BME280;17381;51.690;5.270;2023-02-05T03:20:57;103571.16;;;7.55;92.42
30614;BME280;17381;51.690;5.270;2023-02-05T03:23:30;103566.56;;;7.48;92.40
30614;BME280;17381;51.690;5.270;2023-02-05T03:26:01;103554.00;;;7.36;92.11
30614;BME280;17381;51.690;5.270;2023-02-05T03:28:40;103555.84;;;7.39;91.40
30614;BME280;17381;51.690;5.270;2023-02-05T03:50:42;103596.38;;;7.52;91.05
30614;BME280;17381;51.690;5.270;2023-02-05T03:53:37;103598.91;;;7.50;91.16
30614;BME280;17381;51.690;5.270;2023-02-05T03:56:27;103593.41;;;7.41;90.72
30614;BME280;17381;51.690;5.270;2023-02-05T03:58:56;103597.94;;;7.47;90.88
30614;BME280;17381;51.690;5.270;2023-02-05T04:01:26;103576.63;;;7.34;90.37
30614;BME280;17381;51.690;5.270;2023-02-05T04:03:57;103592.66;;;7.45;90.63
30614;BME280;17381;51.690;5.270;2023-02-05T04:06:27;103595.09;;;7.39;90.08
30614;BME280;17381;51.690;5.270;2023-02-05T04:08:59;103605.75;;;7.45;89.91
30614;BME280;17381;51.690;5.270;2023-02-05T04:11:29;103609.28;;;7.47;89.51
30614;BME280;17381;51.690;5.270;2023-02-05T04:14:02;103550.75;;;7.16;89.77
30614;BME280;17381;51.690;5.270;2023-02-05T04:16:34;103544.50;;;7.11;89.58
30614;BME280;17381;51.690;5.270;2023-02-05T04:19:03;103607.53;;;7.46;89.95
30614;BME280;17381;51.690;5.270;2023-02-05T04:21:29;103611.06;;;7.48;89.79
30614;BME280;17381;51.690;5.270;2023-02-05T04:23:55;103597.88;;;7.45;89.57
30614;BME280;17381;51.690;5.270;2023-02-05T04:26:27;103541.88;;;7.11;89.20
30614;BME280;17381;51.690;5.270;2023-02-05T04:29:03;103592.25;;;7.33;89.56
30614;BME280;17381;51.690;5.270;2023-02-05T04:31:35;103595.78;;;7.33;89.65
30614;BME280;17381;51.690;5.270;2023-02-05T04:34:03;103599.44;;;7.38;89.28
30614;BME280;17381;51.690;5.270;2023-02-05T04:36:31;103603.75;;;7.38;89.23
30614;BME280;17381;51.690;5.270;2023-02-05T04:39:00;103593.19;;;7.35;89.38
30614;BME280;17381;51.690;5.270;2023-02-05T04:41:29;103609.09;;;7.41;88.96
30614;BME280;17381;51.690;5.270;2023-02-05T04:43:55;103606.44;;;7.39;88.96
30614;BME280;17381;51.690;5.270;2023-02-05T04:46:29;103610.78;;;7.39;89.10
30614;BME280;17381;51.690;5.270;2023-02-05T04:49:08;103595.00;;;7.36;89.59
30614;BME280;17381;51.690;5.270;2023-02-05T04:51:35;103602.00;;;7.37;89.37
30614;BME280;17381;51.690;5.270;2023-02-05T04:54:00;103603.66;;;7.35;89.73
30614;BME280;17381;51.690;5.270;2023-02-05T04:56:32;103612.44;;;7.37;90.08
30614;BME280;17381;51.690;5.270;2023-02-05T04:58:58;103601.03;;;7.35;89.50
30614;BME280;17381;51.690;5.270;2023-02-05T05:01:26;103598.41;;;7.33;89.81
30614;BME280;17381;51.690;5.270;2023-02-05T05:03:53;103576.56;;;7.33;90.32
30614;BME280;17381;51.690;5.270;2023-02-05T05:06:23;103585.19;;;7.30;90.16
30614;BME280;17381;51.690;5.270;2023-02-05T05:09:01;103578.88;;;7.24;89.98
30614;BME280;17381;51.690;5.270;2023-02-05T05:11:27;103592.22;;;7.31;90.66
30614;BME280;17381;51.690;5.270;2023-02-05T05:13:56;103536.94;;;6.93;91.09
30614;BME280;17381;51.690;5.270;2023-02-05T05:16:32;103589.34;;;7.24;90.70
30614;BME280;17381;51.690;5.270;2023-02-05T05:19:04;103585.09;;;7.27;91.52
30614;BME280;17381;51.690;5.270;2023-02-05T05:21:36;103593.00;;;7.29;91.48
30614;BME280;17381;51.690;5.270;2023-02-05T05:24:02;103586.84;;;7.27;91.74
30614;BME280;17381;51.690;5.270;2023-02-05T05:26:28;103529.09;;;6.93;91.67
30614;BME280;17381;51.690;5.270;2023-02-05T05:28:59;103584.22;;;7.27;91.79
30614;BME280;17381;51.690;5.270;2023-02-05T05:31:33;103573.59;;;7.22;92.51
30614;BME280;17381;51.690;5.270;2023-02-05T05:34:04;103581.44;;;7.22;92.79
30614;BME280;17381;51.690;5.270;2023-02-05T05:36:41;103577.78;;;7.17;92.62
30614;BME280;17381;51.690;5.270;2023-02-05T05:39:11;103576.81;;;7.13;93.70
30614;BME280;17381;51.690;5.270;2023-02-05T05:41:59;103584.03;;;7.20;94.25
30614;BME280;17381;51.690;5.270;2023-02-05T05:44:46;103580.91;;;7.05;94.45
30614;BME280;17381;51.690;5.270;2023-02-05T05:47:20;103606.41;;;7.12;94.65
30614;BME280;17381;51.690;5.270;2023-02-05T05:49:55;103607.94;;;7.06;95.41
30614;BME280;17381;51.690;5.270;2023-02-05T05:52:32;103596.59;;;7.05;95.14
30614;BME280;17381;51.690;5.270;2023-02-05T05:55:00;103597.31;;;7.01;94.77
30614;BME280;17381;51.690;5.270;2023-02-05T05:57:34;103542.22;;;6.69;94.60
30614;BME280;17381;51.690;5.270;2023-02-05T06:00:06;103602.53;;;7.01;94.94
30614;BME280;17381;51.690;5.270;2023-02-05T06:02:41;103594.44;;;6.93;94.82
30614;BME280;17381;51.690;5.270;2023-02-05T06:05:11;103595.38;;;6.95;95.02
30614;BME280;17381;51.690;5.270;2023-02-05T06:07:42;103598.09;;;6.98;95.19
30614;BME280;17381;51.690;5.270;2023-02-05T06:10:11;103565.94;;;6.75;95.18
30614;BME280;17381;51.690;5.270;2023-02-05T06:12:45;103596.28;;;6.96;95.10
30614;BME280;17381;51.690;5.270;2023-02-05T06:15:18;103615.47;;;6.96;95.21
30614;BME280;17381;51.690;5.270;2023-02-05T06:17:51;103602.88;;;6.85;94.86
30614;BME280;17381;51.690;5.270;2023-02-05T06:20:28;103567.22;;;6.61;95.21
30614;BME280;17381;51.690;5.270;2023-02-05T06:23:07;103626.50;;;6.88;94.84
30614;BME280;17381;51.690;5.270;2023-02-05T06:25:39;103626.41;;;6.85;94.15
30614;BME280;17381;51.690;5.270;2023-02-05T06:28:05;103585.78;;;6.45;93.86
30614;BME280;17381;51.690;5.270;2023-02-05T06:30:34;103655.66;;;6.74;92.81
30614;BME280;17381;51.690;5.270;2023-02-05T06:33:05;103625.06;;;6.48;93.23
30614;BME280;17381;51.690;5.270;2023-02-05T06:35:30;103652.59;;;6.62;92.05
30614;BME280;17381;51.690;5.270;2023-02-05T06:37:56;103656.06;;;6.61;91.50
30614;BME280;17381;51.690;5.270;2023-02-05T06:40:27;103668.09;;;6.58;91.52
30614;BME280;17381;51.690;5.270;2023-02-05T06:42:53;103680.09;;;6.52;91.18
30614;BME280;17381;51.690;5.270;2023-02-05T06:45:23;103692.22;;;6.50;89.91
30614;BME280;17381;51.690;5.270;2023-02-05T06:47:51;103692.22;;;6.50;89.74
30614;BME280;17381;51.690;5.270;2023-02-05T06:50:21;103699.13;;;6.48;89.65
30614;BME280;17381;51.690;5.270;2023-02-05T06:52:50;103707.34;;;6.35;88.79
30614;BME280;17381;51.690;5.270;2023-02-05T06:55:16;103706.31;;;6.31;87.35
30614;BME280;17381;51.690;5.270;2023-02-05T06:57:45;103678.50;;;6.09;87.29
30614;BME280;17381;51.690;5.270;2023-02-05T07:00:11;103678.91;;;5.98;86.89
30614;BME280;17381;51.690;5.270;2023-02-05T07:02:50;103741.13;;;6.30;87.18
30614;BME280;17381;51.690;5.270;2023-02-05T07:05:24;103733.75;;;6.20;87.30
30614;BME280;17381;51.690;5.270;2023-02-05T07:07:56;103736.59;;;6.26;86.75
30614;BME280;17381;51.690;5.270;2023-02-05T07:10:43;103745.50;;;6.31;86.91
30614;BME280;17381;51.690;5.270;2023-02-05T07:13:20;103753.22;;;6.28;87.03
30614;BME280;17381;51.690;5.270;2023-02-05T07:15:46;103753.03;;;6.24;86.06
30614;BME280;17381;51.690;5.270;2023-02-05T07:18:17;103751.31;;;6.24;85.81
30614;BME280;17381;51.690;5.270;2023-02-05T07:20:53;103761.63;;;6.21;85.57
30614;BME280;17381;51.690;5.270;2023-02-05T07:23:45;103758.97;;;6.20;85.46
30614;BME280;17381;51.690;5.270;2023-02-05T07:26:19;103772.19;;;6.24;85.69
30614;BME280;17381;51.690;5.270;2023-02-05T07:28:51;103784.44;;;6.25;85.79
30614;BME280;17381;51.690;5.270;2023-02-05T07:31:20;103787.94;;;6.26;85.63
30614;BME280;17381;51.690;5.270;2023-02-05T07:33:51;103773.88;;;6.22;85.34
30614;BME280;17381;51.690;5.270;2023-02-05T07:36:21;103785.41;;;6.27;85.66
30614;BME280;17381;51.690;5.270;2023-02-05T07:39:02;103787.41;;;6.34;85.21
30614;BME280;17381;51.690;5.270;2023-02-05T07:41:42;103692.97;;;5.80;84.99
30614;BME280;17381;51.690;5.270;2023-02-05T07:44:29;103806.75;;;6.40;84.68
30614;BME280;17381;51.690;5.270;2023-02-05T07:46:59;103813.69;;;6.38;85.59
30614;BME280;17381;51.690;5.270;2023-02-05T07:49:36;103827.84;;;6.44;85.46
30614;BME280;17381;51.690;5.270;2023-02-05T07:52:02;103783.72;;;6.29;85.67
30614;BME280;17381;51.690;5.270;2023-02-05T07:54:30;103828.09;;;6.50;85.46
30614;BME280;17381;51.690;5.270;2023-02-05T07:57:04;103845.69;;;6.54;84.99
30614;BME280;17381;51.690;5.270;2023-02-05T07:59:44;103832.53;;;6.53;85.26
30614;BME280;17381;51.690;5.270;2023-02-05T08:02:23;103848.06;;;6.48;84.67
30614;BME280;17381;51.690;5.270;2023-02-05T08:05:00;103854.16;;;6.49;84.96
30614;BME280;17381;51.690;5.270;2023-02-05T08:07:28;103845.69;;;6.54;85.36
30614;BME280;17381;51.690;5.270;2023-02-05T08:09:54;103804.56;;;6.28;84.11
30614;BME280;17381;51.690;5.270;2023-02-05T08:12:25;103862.50;;;6.61;84.70
30614;BME280;17381;51.690;5.270;2023-02-05T08:14:56;103845.75;;;6.56;84.72
30614;BME280;17381;51.690;5.270;2023-02-05T08:17:28;103855.66;;;6.65;83.98
30614;BME280;17381;51.690;5.270;2023-02-05T08:20:04;103837.75;;;6.53;83.52
30614;BME280;17381;51.690;5.270;2023-02-05T08:22:41;103863.38;;;6.62;83.15
30614;BME280;17381;51.690;5.270;2023-02-05T08:25:15;103862.50;;;6.61;82.96
30614;BME280;17381;51.690;5.270;2023-02-05T08:27:44;103860.66;;;6.59;82.79
30614;BME280;17381;51.690;5.270;2023-02-05T08:30:29;103770.47;;;6.02;82.11
30614;BME280;17381;51.690;5.270;2023-02-05T08:33:00;103864.34;;;6.64;83.12
30614;BME280;17381;51.690;5.270;2023-02-05T08:35:46;103872.19;;;6.64;82.88
30614;BME280;17381;51.690;5.270;2023-02-05T08:38:19;103810.88;;;6.33;81.67
30614;BME280;17381;51.690;5.270;2023-02-05T08:40:45;103867.97;;;6.67;81.44
30614;BME280;17381;51.690;5.270;2023-02-05T08:43:16;103852.16;;;6.64;82.05
30614;BME280;17381;51.690;5.270;2023-02-05T08:45:45;103870.88;;;6.75;81.30
30614;BME280;17381;51.690;5.270;2023-02-05T08:48:24;103817.47;;;6.46;81.18
30614;BME280;17381;51.690;5.270;2023-02-05T08:50:57;103872.91;;;6.82;81.80
30614;BME280;17381;51.690;5.270;2023-02-05T08:53:26;103858.88;;;6.80;81.70
30614;BME280;17381;51.690;5.270;2023-02-05T08:55:59;103869.75;;;6.91;80.93
30614;BME280;17381;51.690;5.270;2023-02-05T08:58:40;103867.25;;;6.94;81.05
30614;BME280;17381;51.690;5.270;2023-02-05T09:01:13;103869.03;;;6.95;81.09
30614;BME280;17381;51.690;5.270;2023-02-05T09:03:44;103870.13;;;7.00;80.89
30614;BME280;17381;51.690;5.270;2023-02-05T09:06:29;103873.53;;;6.99;81.24
30614;BME280;17381;51.690;5.270;2023-02-05T09:09:06;103871.88;;;7.01;81.36
30614;BME280;17381;51.690;5.270;2023-02-05T09:11:38;103845.09;;;6.84;81.38
30614;BME280;17381;51.690;5.270;2023-02-05T09:14:14;103873.94;;;7.10;81.08
30614;BME280;17381;51.690;5.270;2023-02-05T09:16:42;103880.19;;;7.13;80.78
30614;BME280;17381;51.690;5.270;2023-02-05T09:19:14;103879.16;;;7.10;80.46
30614;BME280;17381;51.690;5.270;2023-02-05T09:21:48;103875.66;;;7.09;80.59
30614;BME280;17381;51.690;5.270;2023-02-05T09:24:17;103889.72;;;7.11;79.92
30614;BME280;17381;51.690;5.270;2023-02-05T09:26:46;103895.81;;;7.12;80.27
30614;BME280;17381;51.690;5.270;2023-02-05T09:29:18;103890.66;;;7.13;79.56
30614;BME280;17381;51.690;5.270;2023-02-05T09:31:48;103896.97;;;7.18;80.11
30614;BME280;17381;51.690;5.270;2023-02-05T09:34:26;103890.88;;;7.19;79.35
30614;BME280;17381;51.690;5.270;2023-02-05T09:36:57;103894.16;;;7.14;78.85
30614;BME280;17381;51.690;5.270;2023-02-05T09:39:29;103837.38;;;6.87;78.78
30614;BME280;17381;51.690;5.270;2023-02-05T09:48:15;103901.81;;;7.32;78.90
30614;BME280;17381;51.690;5.270;2023-02-05T09:50:54;103902.00;;;7.36;77.83
30614;BME280;17381;51.690;5.270;2023-02-05T09:53:50;103889.91;;;7.40;78.20
30614;BME280;17381;51.690;5.270;2023-02-05T09:56:16;103873.09;;;7.33;76.81
30614;BME280;17381;51.690;5.270;2023-02-05T09:58:52;103883.13;;;7.45;77.15
30614;BME280;17381;51.690;5.270;2023-02-05T10:01:48;103862.84;;;7.39;76.03
30614;BME280;17381;51.690;5.270;2023-02-05T10:04:30;103885.13;;;7.52;76.09
30614;BME280;17381;51.690;5.270;2023-02-05T10:07:43;103895.78;;;7.57;74.94
30614;BME280;17381;51.690;5.270;2023-02-05T10:10:43;103868.44;;;7.49;74.53
30614;BME280;17381;51.690;5.270;2023-02-05T22:15:06;104274.09;;;4.47;84.60
30614;BME280;17381;51.690;5.270;2023-02-05T22:17:38;104279.94;;;4.43;85.06
30614;BME280;17381;51.690;5.270;2023-02-05T22:20:12;104276.34;;;4.41;85.30
30614;BME280;17381;51.690;5.270;2023-02-05T22:22:44;104275.91;;;4.33;85.25
30614;BME280;17381;51.690;5.270;2023-02-05T22:25:10;104254.72;;;4.11;85.60
30614;BME280;17381;51.690;5.270;2023-02-05T22:27:53;104272.72;;;4.23;85.84
30614;BME280;17381;51.690;5.270;2023-02-05T22:30:33;104292.38;;;4.32;85.46
30614;BME280;17381;51.690;5.270;2023-02-05T22:33:20;104277.88;;;4.21;85.46
30614;BME280;17381;51.690;5.270;2023-02-05T22:35:53;104290.31;;;4.27;85.72
30614;BME280;17381;51.690;5.270;2023-02-05T22:38:29;104292.94;;;4.27;85.91
30614;BME280;17381;51.690;5.270;2023-02-05T22:41:15;104256.53;;;3.97;85.30
30614;BME280;17381;51.690;5.270;2023-02-05T22:44:06;104306.50;;;4.21;85.39
30614;BME280;17381;51.690;5.270;2023-02-05T22:46:43;104300.19;;;4.18;85.23
30614;BME280;17381;51.690;5.270;2023-02-05T22:49:19;104298.31;;;4.15;85.30
30614;BME280;17381;51.690;5.270;2023-02-05T22:51:49;104311.34;;;4.15;85.30
30614;BME280;17381;51.690;5.270;2023-02-05T22:54:21;104303.25;;;4.10;85.94
30614;BME280;17381;51.690;5.270;2023-02-05T22:56:53;104303.09;;;4.07;85.99
30614;BME280;17381;51.690;5.270;2023-02-05T22:59:25;104301.75;;;4.14;85.89
30614;BME280;17381;51.690;5.270;2023-02-05T23:01:57;104313.78;;;4.12;86.22
30614;BME280;17381;51.690;5.270;2023-02-05T23:04:32;104304.25;;;4.12;86.25
30614;BME280;17381;51.690;5.270;2023-02-05T23:07:04;104302.31;;;4.08;86.76
30614;BME280;17381;51.690;5.270;2023-02-05T23:09:35;104299.75;;;4.10;86.33
30614;BME280;17381;51.690;5.270;2023-02-05T23:12:14;104296.66;;;4.01;86.37
30614;BME280;17381;51.690;5.270;2023-02-05T23:14:39;104308.13;;;4.04;87.04
30614;BME280;17381;51.690;5.270;2023-02-05T23:17:09;104303.19;;;4.09;87.13
30614;BME280;17381;51.690;5.270;2023-02-05T23:19:44;104290.97;;;4.08;87.06
30614;BME280;17381;51.690;5.270;2023-02-05T23:22:18;104292.69;;;4.07;86.86
30614;BME280;17381;51.690;5.270;2023-02-05T23:24:52;104270.53;;;3.99;87.44
30614;BME280;17381;51.690;5.270;2023-02-05T23:28:05;104291.34;;;3.99;87.40
30614;BME280;17381;51.690;5.270;2023-02-05T23:30:35;104285.25;;;3.99;87.87
30614;BME280;17381;51.690;5.270;2023-02-05T23:33:09;104294.50;;;3.93;88.36
30614;BME280;17381;51.690;5.270;2023-02-05T23:35:47;104303.91;;;3.91;87.98
30614;BME280;17381;51.690;5.270;2023-02-05T23:38:25;104296.38;;;3.96;88.48
30614;BME280;17381;51.690;5.270;2023-02-05T23:41:01;104244.56;;;3.69;88.45
30614;BME280;17381;51.690;5.270;2023-02-05T23:43:36;104305.91;;;3.96;88.28
30614;BME280;17381;51.690;5.270;2023-02-05T23:46:09;104290.91;;;3.91;88.95
30614;BME280;17381;51.690;5.270;2023-02-05T23:48:47;104299.81;;;3.95;88.57
30614;BME280;17381;51.690;5.270;2023-02-05T23:51:19;104285.25;;;3.84;88.22
30614;BME280;17381;51.690;5.270;2023-02-05T23:53:48;104298.00;;;3.94;88.65
30614;BME280;17381;51.690;5.270;2023-02-05T23:56:17;104296.38;;;3.96;88.62
30614;BME280;17381;51.690;5.270;2023-02-05T23:58:43;104299.88;;;3.97;88.72
